Norwood, Massachusetts
Current Conditions -  °F | °C
As of 11:12 PM on Wednesday 26 Nov 2014 (Local Time) from KOWD Reporting Station
Light Snow Light Snow  
Wind Chill: 23°   Ceiling: 1000
Heat Index: 33°   Visibility: 3mi
Dew Point: 31°   Wind: 15mph
Humidity: 92%   Direction: 360°N
Pressure: 29.67"   Gusts: 23mph
Location:  42.2°N, 71.2°W
Report Text: KOWD 270412Z 36013G20KT 3SM -SN BR BKN010 OVC014 01/M01 A2967 RMK AO2 P0000 T00061006 $
Loading
Personal Weather Stations






























Interactive Weather Map New forecast layout! Learn more

10-Day Weather Forecast

Advertisements
Track Severe Weather on mobile